createdAt,value
2023-03-19T00:00:44.108Z,1011.55
2023-03-19T00:01:48.412Z,1011.53
2023-03-19T00:02:52.741Z,1011.54
2023-03-19T00:03:56.715Z,1011.55
2023-03-19T00:05:00.922Z,1011.55
2023-03-19T00:06:05.159Z,1011.55
2023-03-19T00:07:09.335Z,1011.57
2023-03-19T00:08:13.708Z,1011.59
2023-03-19T00:09:17.839Z,1011.58
2023-03-19T00:10:22.076Z,1011.61
2023-03-19T00:11:26.324Z,1011.60
2023-03-19T00:12:30.534Z,1011.58
2023-03-19T00:13:34.715Z,1011.57
2023-03-19T00:14:38.926Z,1011.52
2023-03-19T00:15:43.092Z,1011.52
2023-03-19T00:16:47.321Z,1011.52
2023-03-19T00:17:51.514Z,1011.51
2023-03-19T00:18:55.817Z,1011.49
2023-03-19T00:19:59.975Z,1011.49
2023-03-19T00:21:04.258Z,1011.50
2023-03-19T00:22:08.529Z,1011.49
2023-03-19T00:23:12.780Z,1011.46
2023-03-19T00:24:16.932Z,1011.47
2023-03-19T00:25:21.109Z,1011.46
2023-03-19T00:26:25.328Z,1011.48
2023-03-19T00:27:29.567Z,1011.49
2023-03-19T00:28:33.845Z,1011.50
2023-03-19T00:29:37.997Z,1011.53
2023-03-19T00:30:42.220Z,1011.54
2023-03-19T00:31:46.423Z,1011.56
2023-03-19T00:32:50.633Z,1011.57
2023-03-19T00:33:54.834Z,1011.56
2023-03-19T00:34:59.036Z,1011.55
2023-03-19T00:36:03.223Z,1011.59
2023-03-19T00:37:07.488Z,1011.56
2023-03-19T00:38:11.710Z,1011.55
2023-03-19T00:39:15.946Z,1011.54
2023-03-19T00:40:20.224Z,1011.51
2023-03-19T00:41:24.430Z,1011.51
2023-03-19T00:42:28.668Z,1011.50
2023-03-19T00:43:32.852Z,1011.49
2023-03-19T00:44:37.094Z,1011.51
2023-03-19T00:45:41.392Z,1011.50
2023-03-19T00:46:45.393Z,1011.52
2023-03-19T00:47:49.551Z,1011.52
2023-03-19T00:48:53.794Z,1011.53
2023-03-19T00:49:57.997Z,1011.54
2023-03-19T00:51:02.238Z,1011.56
2023-03-19T00:52:06.530Z,1011.59
2023-03-19T00:53:10.697Z,1011.62
2023-03-19T00:54:14.920Z,1011.63
2023-03-19T00:55:19.110Z,1011.65
2023-03-19T00:56:23.361Z,1011.67
2023-03-19T00:57:27.611Z,1011.67
2023-03-19T00:58:31.938Z,1011.68
2023-03-19T00:59:36.117Z,1011.71
2023-03-19T01:00:40.368Z,1011.69
2023-03-19T01:01:44.715Z,1011.70
2023-03-19T01:02:48.791Z,1011.71
2023-03-19T01:03:52.994Z,1011.72
2023-03-19T01:04:57.212Z,1011.73
2023-03-19T01:06:01.414Z,1011.74
2023-03-19T01:07:05.750Z,1011.72
2023-03-19T01:08:09.936Z,1011.73
2023-03-19T01:09:14.229Z,1011.70
2023-03-19T01:10:18.362Z,1011.70
2023-03-19T01:11:22.671Z,1011.69
2023-03-19T01:12:26.850Z,1011.68
2023-03-19T01:13:31.035Z,1011.68
2023-03-19T01:14:49.395Z,1011.67
2023-03-19T01:15:52.379Z,1011.66
2023-03-19T01:16:57.648Z,1011.64
2023-03-19T01:18:00.774Z,1011.66
2023-03-19T01:19:05.000Z,1011.66
2023-03-19T01:20:09.370Z,1011.67
2023-03-19T01:21:13.501Z,1011.66
2023-03-19T01:22:17.823Z,1011.67
2023-03-19T01:23:22.002Z,1011.67
2023-03-19T01:24:26.281Z,1011.69
2023-03-19T01:25:30.556Z,1011.68
2023-03-19T01:26:34.766Z,1011.66
2023-03-19T01:27:38.972Z,1011.64
2023-03-19T01:28:43.239Z,1011.62
2023-03-19T01:29:47.483Z,1011.63
2023-03-19T01:30:51.723Z,1011.60
2023-03-19T01:31:55.972Z,1011.58
2023-03-19T01:33:00.191Z,1011.58
2023-03-19T01:34:04.328Z,1011.57
2023-03-19T01:35:08.531Z,1011.55
2023-03-19T01:36:12.728Z,1011.55
2023-03-19T01:37:16.948Z,1011.52
2023-03-19T01:38:21.219Z,1011.51
2023-03-19T01:39:25.538Z,1011.50
2023-03-19T01:40:29.802Z,1011.48
2023-03-19T01:41:34.001Z,1011.47
2023-03-19T01:42:38.299Z,1011.47
2023-03-19T01:43:42.540Z,1011.48
2023-03-19T01:44:46.719Z,1011.46
2023-03-19T01:45:51.495Z,1011.45
2023-03-19T01:46:55.176Z,1011.43
2023-03-19T01:47:59.410Z,1011.44
2023-03-19T01:49:03.624Z,1011.43
2023-03-19T01:50:07.875Z,1011.44
2023-03-19T01:51:12.201Z,1011.42
2023-03-19T01:52:16.340Z,1011.43
2023-03-19T01:53:20.518Z,1011.43
2023-03-19T01:54:24.780Z,1011.44
2023-03-19T01:55:28.999Z,1011.44
2023-03-19T01:56:33.207Z,1011.46
2023-03-19T01:57:37.499Z,1011.44
2023-03-19T01:58:41.664Z,1011.45
2023-03-19T01:59:45.916Z,1011.46
2023-03-19T02:00:50.141Z,1011.46
2023-03-19T02:01:54.410Z,1011.46
2023-03-19T02:02:58.538Z,1011.46
2023-03-19T02:04:02.956Z,1011.45
2023-03-19T02:05:07.107Z,1011.45
2023-03-19T02:06:11.393Z,1011.43
2023-03-19T02:07:15.683Z,1011.41
2023-03-19T02:08:19.807Z,1011.44
2023-03-19T02:09:38.048Z,1011.46
2023-03-19T02:10:41.111Z,1011.46
2023-03-19T02:11:45.281Z,1011.45
2023-03-19T02:12:49.559Z,1011.46
2023-03-19T02:13:53.594Z,1011.47
2023-03-19T02:14:57.854Z,1011.49
2023-03-19T02:16:02.110Z,1011.51
2023-03-19T02:17:06.381Z,1011.49
2023-03-19T02:18:10.494Z,1011.50
2023-03-19T02:19:14.793Z,1011.49
2023-03-19T02:20:18.963Z,1011.48
2023-03-19T02:21:23.217Z,1011.46
2023-03-19T02:22:27.390Z,1011.45
2023-03-19T02:23:31.629Z,1011.44
2023-03-19T02:24:35.976Z,1011.44
2023-03-19T02:25:40.052Z,1011.43
2023-03-19T02:26:44.313Z,1011.43
2023-03-19T02:27:48.622Z,1011.44
2023-03-19T02:28:52.842Z,1011.45
2023-03-19T02:29:57.082Z,1011.46
2023-03-19T02:31:01.418Z,1011.45
2023-03-19T02:32:05.571Z,1011.46
2023-03-19T02:33:09.968Z,1011.47
2023-03-19T02:34:14.100Z,1011.50
2023-03-19T02:35:18.336Z,1011.48
2023-03-19T02:36:22.536Z,1011.49
2023-03-19T02:37:26.774Z,1011.47
2023-03-19T02:38:31.109Z,1011.47
2023-03-19T02:39:35.282Z,1011.47
2023-03-19T02:40:39.534Z,1011.48
2023-03-19T02:41:43.739Z,1011.44
2023-03-19T02:42:47.980Z,1011.47
2023-03-19T02:43:52.197Z,1011.47
2023-03-19T02:44:56.487Z,1011.48
2023-03-19T02:46:00.774Z,1011.45
2023-03-19T02:47:05.064Z,1011.46
2023-03-19T02:48:09.227Z,1011.48
2023-03-19T02:49:13.454Z,1011.48
2023-03-19T02:50:17.540Z,1011.50
2023-03-19T02:51:21.851Z,1011.51
2023-03-19T02:52:26.106Z,1011.54
2023-03-19T02:53:30.243Z,1011.53
2023-03-19T02:54:34.551Z,1011.54
2023-03-19T02:55:38.730Z,1011.51
2023-03-19T02:56:43.078Z,1011.53
2023-03-19T02:57:47.258Z,1011.52
2023-03-19T02:58:51.538Z,1011.53
2023-03-19T02:59:55.689Z,1011.55
2023-03-19T03:01:00.052Z,1011.55
2023-03-19T03:02:04.185Z,1011.57
2023-03-19T03:03:08.415Z,1011.59
2023-03-19T03:04:12.600Z,1011.59
2023-03-19T03:05:16.818Z,1011.59
2023-03-19T03:06:21.034Z,1011.58
2023-03-19T03:07:25.228Z,1011.56
2023-03-19T03:08:29.431Z,1011.56
2023-03-19T03:09:33.633Z,1011.56
2023-03-19T03:10:37.977Z,1011.61
2023-03-19T03:11:42.227Z,1011.64
2023-03-19T03:12:46.434Z,1011.65
2023-03-19T03:13:50.636Z,1011.65
2023-03-19T03:14:54.868Z,1011.68
2023-03-19T03:15:59.220Z,1011.66
2023-03-19T03:17:03.425Z,1011.67
2023-03-19T03:18:07.606Z,1011.66
2023-03-19T03:19:11.907Z,1011.66
2023-03-19T03:20:16.180Z,1011.63
2023-03-19T03:21:20.493Z,1011.61
2023-03-19T03:22:24.768Z,1011.58
2023-03-19T03:23:28.954Z,1011.58
2023-03-19T03:24:33.182Z,1011.58
2023-03-19T03:25:37.381Z,1011.56
2023-03-19T03:26:41.624Z,1011.58
2023-03-19T03:27:45.853Z,1011.58
2023-03-19T03:28:50.062Z,1011.56
2023-03-19T03:29:54.345Z,1011.56
2023-03-19T03:30:58.641Z,1011.62
2023-03-19T03:32:05.864Z,1011.64
2023-03-19T03:33:09.272Z,1011.66
2023-03-19T03:34:13.468Z,1011.69
2023-03-19T03:35:17.614Z,1011.71
2023-03-19T03:36:21.861Z,1011.71
2023-03-19T03:37:26.089Z,1011.68
2023-03-19T03:38:30.309Z,1011.68
2023-03-19T03:39:34.476Z,1011.69
2023-03-19T03:40:38.717Z,1011.70
2023-03-19T03:41:42.972Z,1011.68
2023-03-19T03:42:53.185Z,1011.65
2023-03-19T03:43:56.031Z,1011.62
2023-03-19T03:45:00.175Z,1011.64
2023-03-19T03:46:04.449Z,1011.64
2023-03-19T03:47:08.629Z,1011.64
2023-03-19T03:48:26.856Z,1011.65
2023-03-19T03:49:29.892Z,1011.64
2023-03-19T03:50:34.418Z,1011.62
2023-03-19T03:51:38.266Z,1011.63
2023-03-19T03:52:42.510Z,1011.62
2023-03-19T03:53:46.835Z,1011.62
2023-03-19T03:54:50.986Z,1011.63
2023-03-19T03:55:55.285Z,1011.62
2023-03-19T03:57:01.460Z,1011.64
2023-03-19T03:58:03.817Z,1011.63
2023-03-19T03:59:07.980Z,1011.64
2023-03-19T04:00:12.206Z,1011.63
2023-03-19T04:01:16.477Z,1011.65
2023-03-19T04:02:20.762Z,1011.63
2023-03-19T04:03:24.988Z,1011.63
2023-03-19T04:04:29.105Z,1011.61
2023-03-19T04:05:33.479Z,1011.62
2023-03-19T04:06:37.734Z,1011.61
2023-03-19T04:07:41.900Z,1011.62
2023-03-19T04:08:46.161Z,1011.59
2023-03-19T04:09:50.394Z,1011.61
2023-03-19T04:10:54.633Z,1011.62
2023-03-19T04:11:58.944Z,1011.60
2023-03-19T04:13:03.150Z,1011.60
2023-03-19T04:14:07.369Z,1011.59
2023-03-19T04:15:11.613Z,1011.62
2023-03-19T04:16:15.936Z,1011.61
2023-03-19T04:17:23.019Z,1011.62
2023-03-19T04:18:26.343Z,1011.64
2023-03-19T04:19:30.542Z,1011.62
2023-03-19T04:20:35.136Z,1011.64
2023-03-19T04:21:38.933Z,1011.63
2023-03-19T04:22:43.161Z,1011.61
2023-03-19T04:23:47.424Z,1011.62
2023-03-19T04:24:51.683Z,1011.60
2023-03-19T04:25:55.914Z,1011.58
2023-03-19T04:27:00.230Z,1011.59
2023-03-19T04:28:04.431Z,1011.57
2023-03-19T04:29:08.703Z,1011.58
2023-03-19T04:30:12.864Z,1011.59
2023-03-19T04:31:17.241Z,1011.60
2023-03-19T04:32:21.365Z,1011.58
2023-03-19T04:33:25.607Z,1011.61
2023-03-19T04:34:29.848Z,1011.60
2023-03-19T04:35:34.101Z,1011.59
2023-03-19T04:36:38.273Z,1011.58
2023-03-19T04:37:42.530Z,1011.57
2023-03-19T04:38:46.756Z,1011.57
2023-03-19T04:39:50.994Z,1011.58
2023-03-19T04:40:55.205Z,1011.58
2023-03-19T04:41:59.482Z,1011.59
2023-03-19T04:43:03.693Z,1011.63
2023-03-19T04:44:10.919Z,1011.63
2023-03-19T04:45:14.211Z,1011.62
2023-03-19T04:46:18.574Z,1011.61
2023-03-19T04:47:22.777Z,1011.60
2023-03-19T04:48:26.933Z,1011.61
2023-03-19T04:49:31.177Z,1011.62
2023-03-19T04:50:35.758Z,1011.61
2023-03-19T04:51:39.727Z,1011.64
2023-03-19T04:52:43.893Z,1011.65
2023-03-19T04:53:48.128Z,1011.64
2023-03-19T04:54:52.388Z,1011.63
2023-03-19T04:55:56.622Z,1011.63
2023-03-19T04:57:01.025Z,1011.63
2023-03-19T04:58:05.064Z,1011.62
2023-03-19T04:59:09.354Z,1011.63
2023-03-19T05:00:13.555Z,1011.62
2023-03-19T05:01:17.858Z,1011.63
2023-03-19T05:02:22.074Z,1011.62
2023-03-19T05:03:29.324Z,1011.59
2023-03-19T05:04:32.581Z,1011.59
2023-03-19T05:05:36.824Z,1011.57
2023-03-19T05:06:41.193Z,1011.57
2023-03-19T05:07:45.286Z,1011.56
2023-03-19T05:08:49.526Z,1011.57
2023-03-19T05:09:53.763Z,1011.57
2023-03-19T05:10:58.029Z,1011.57
2023-03-19T05:12:02.271Z,1011.56
2023-03-19T05:13:06.484Z,1011.59
2023-03-19T05:14:10.722Z,1011.54
2023-03-19T05:15:14.952Z,1011.52
2023-03-19T05:16:19.242Z,1011.51
2023-03-19T05:17:23.418Z,1011.54
2023-03-19T05:18:27.622Z,1011.50
2023-03-19T05:19:31.823Z,1011.49
2023-03-19T05:20:36.288Z,1011.51
2023-03-19T05:21:40.388Z,1011.50
2023-03-19T05:22:44.578Z,1011.53
2023-03-19T05:23:48.772Z,1011.50
2023-03-19T05:24:52.992Z,1011.49
2023-03-19T05:25:57.234Z,1011.53
2023-03-19T05:27:01.466Z,1011.51
2023-03-19T05:28:05.686Z,1011.52
2023-03-19T05:29:09.952Z,1011.53
2023-03-19T05:30:14.242Z,1011.51
2023-03-19T05:31:18.554Z,1011.51
2023-03-19T05:32:22.680Z,1011.52
2023-03-19T05:33:26.946Z,1011.51
2023-03-19T05:34:31.299Z,1011.51
2023-03-19T05:35:35.459Z,1011.50
2023-03-19T05:36:39.794Z,1011.50
2023-03-19T05:37:44.041Z,1011.51
2023-03-19T05:38:48.240Z,1011.51
2023-03-19T05:39:52.490Z,1011.51
2023-03-19T05:40:56.722Z,1011.53
2023-03-19T05:42:00.953Z,1011.55
2023-03-19T05:43:05.252Z,1011.55
2023-03-19T05:44:09.464Z,1011.56
2023-03-19T05:45:13.657Z,1011.57
2023-03-19T05:46:17.954Z,1011.58
2023-03-19T05:47:22.081Z,1011.60
2023-03-19T05:48:26.355Z,1011.60
2023-03-19T05:49:33.664Z,1011.61
2023-03-19T05:50:36.945Z,1011.60
2023-03-19T05:51:41.246Z,1011.60
2023-03-19T05:52:45.418Z,1011.59
2023-03-19T05:53:49.686Z,1011.60
2023-03-19T05:54:53.913Z,1011.59
2023-03-19T05:55:58.195Z,1011.63
2023-03-19T05:57:03.479Z,1011.62
2023-03-19T05:58:06.642Z,1011.62
2023-03-19T05:59:10.993Z,1011.63
2023-03-19T06:00:15.193Z,1011.63
2023-03-19T06:01:19.544Z,1011.62
2023-03-19T06:02:23.688Z,1011.65
2023-03-19T06:03:27.914Z,1011.65
2023-03-19T06:04:32.263Z,1011.67
2023-03-19T06:05:36.434Z,1011.66
2023-03-19T06:06:40.656Z,1011.69
2023-03-19T06:07:44.898Z,1011.76
2023-03-19T06:08:49.121Z,1011.76
2023-03-19T06:09:53.413Z,1011.77
2023-03-19T06:10:57.619Z,1011.76
2023-03-19T06:12:01.959Z,1011.76
2023-03-19T06:13:06.104Z,1011.75
2023-03-19T06:14:16.357Z,1011.76
2023-03-19T06:15:19.183Z,1011.80
2023-03-19T06:16:23.522Z,1011.79
2023-03-19T06:17:27.651Z,1011.81
2023-03-19T06:18:31.916Z,1011.80
2023-03-19T06:19:36.142Z,1011.81
2023-03-19T06:20:40.439Z,1011.83
2023-03-19T06:21:44.590Z,1011.83
2023-03-19T06:22:48.827Z,1011.84
2023-03-19T06:23:53.062Z,1011.86
2023-03-19T06:24:57.304Z,1011.87
2023-03-19T06:26:01.625Z,1011.87
2023-03-19T06:27:05.800Z,1011.87
2023-03-19T06:28:24.104Z,1011.87
2023-03-19T06:29:27.430Z,1011.88
2023-03-19T06:30:31.763Z,1011.88
2023-03-19T06:31:35.946Z,1011.88
2023-03-19T06:32:40.207Z,1011.90
2023-03-19T06:33:44.306Z,1011.92
2023-03-19T06:34:48.539Z,1011.92
2023-03-19T06:35:52.805Z,1011.93
2023-03-19T06:36:56.989Z,1011.95
2023-03-19T06:38:01.196Z,1011.96
2023-03-19T06:39:05.419Z,1011.98
2023-03-19T06:40:09.631Z,1011.98
2023-03-19T06:41:13.878Z,1011.98
2023-03-19T06:42:18.046Z,1012.00
2023-03-19T06:43:22.240Z,1011.99
2023-03-19T06:44:26.458Z,1011.99
2023-03-19T06:45:30.795Z,1012.02
2023-03-19T06:46:35.024Z,1012.04
2023-03-19T06:47:39.409Z,1012.08
2023-03-19T06:48:43.566Z,1012.07
2023-03-19T06:49:47.801Z,1012.08
2023-03-19T06:50:52.015Z,1012.10
2023-03-19T06:51:56.323Z,1012.11
2023-03-19T06:53:01.535Z,1012.10
2023-03-19T06:54:05.372Z,1012.10
2023-03-19T06:55:09.594Z,1012.09
2023-03-19T06:56:13.811Z,1012.10
2023-03-19T06:57:18.054Z,1012.09
2023-03-19T06:58:22.266Z,1012.09
2023-03-19T06:59:26.467Z,1012.10
2023-03-19T07:00:44.798Z,1012.10
2023-03-19T07:01:47.860Z,1012.12
2023-03-19T07:02:52.049Z,1012.13
2023-03-19T07:03:56.302Z,1012.14
2023-03-19T07:05:00.490Z,1012.14
2023-03-19T07:06:04.698Z,1012.13
2023-03-19T07:07:09.018Z,1012.10
2023-03-19T07:08:13.193Z,1012.13
2023-03-19T07:09:17.543Z,1012.12
2023-03-19T07:10:21.765Z,1012.10
2023-03-19T07:11:26.043Z,1012.09
2023-03-19T07:12:30.248Z,1012.09
2023-03-19T07:13:34.580Z,1012.17
2023-03-19T07:14:38.783Z,1012.20
2023-03-19T07:15:42.999Z,1012.21
2023-03-19T07:16:47.347Z,1012.27
2023-03-19T07:17:51.532Z,1012.28
2023-03-19T07:18:55.854Z,1012.27
2023-03-19T07:20:00.102Z,1012.30
2023-03-19T07:21:04.305Z,1012.29
2023-03-19T07:22:11.636Z,1012.27
2023-03-19T07:23:14.898Z,1012.26
2023-03-19T07:24:19.113Z,1012.21
2023-03-19T07:25:23.486Z,1012.19
2023-03-19T07:26:27.747Z,1012.16
2023-03-19T07:27:31.934Z,1012.15
2023-03-19T07:28:36.305Z,1012.14
2023-03-19T07:29:40.411Z,1012.16
2023-03-19T07:30:44.721Z,1012.17
2023-03-19T07:31:48.983Z,1012.17
2023-03-19T07:32:53.376Z,1012.18
2023-03-19T07:33:57.530Z,1012.16
2023-03-19T07:35:01.799Z,1012.14
2023-03-19T07:36:06.024Z,1012.12
2023-03-19T07:37:10.292Z,1012.11
2023-03-19T07:38:14.626Z,1012.07
2023-03-19T07:39:18.817Z,1012.09
2023-03-19T07:40:23.147Z,1012.07
2023-03-19T07:41:27.485Z,1012.08
2023-03-19T07:42:31.724Z,1012.06
2023-03-19T07:43:35.988Z,1012.03
2023-03-19T07:44:40.362Z,1012.01
2023-03-19T07:45:44.568Z,1012.02
2023-03-19T07:46:48.904Z,1012.01
2023-03-19T07:47:53.178Z,1012.00
2023-03-19T07:48:57.426Z,1012.01
2023-03-19T07:50:01.823Z,1012.01
2023-03-19T07:51:06.024Z,1011.99
2023-03-19T07:52:10.255Z,1012.01
2023-03-19T07:53:14.494Z,1012.01
2023-03-19T07:54:18.691Z,1012.03
2023-03-19T07:55:22.947Z,1012.06
2023-03-19T07:56:27.185Z,1012.05
2023-03-19T07:57:31.472Z,1012.10
2023-03-19T07:58:35.783Z,1012.09
2023-03-19T07:59:39.958Z,1012.06
2023-03-19T08:00:44.215Z,1012.07
2023-03-19T08:01:48.422Z,1012.04
2023-03-19T08:02:52.701Z,1012.03
2023-03-19T08:03:56.909Z,1012.04
2023-03-19T08:05:01.169Z,1012.06
2023-03-19T08:06:05.573Z,1012.04
2023-03-19T08:07:09.722Z,1012.04
2023-03-19T08:08:14.091Z,1012.04
2023-03-19T08:09:18.369Z,1012.02
2023-03-19T08:10:22.720Z,1012.01
2023-03-19T08:11:26.933Z,1012.02
2023-03-19T08:12:31.273Z,1012.01
2023-03-19T08:13:35.519Z,1012.03
2023-03-19T08:14:39.782Z,1012.03
2023-03-19T08:15:43.992Z,1012.05
2023-03-19T08:16:48.426Z,1012.07
2023-03-19T08:17:52.607Z,1012.04
2023-03-19T08:18:56.906Z,1012.01
2023-03-19T08:20:01.135Z,1012.00
2023-03-19T08:21:05.413Z,1012.00
2023-03-19T08:22:09.685Z,1011.98
2023-03-19T08:23:14.048Z,1011.98
2023-03-19T08:24:18.242Z,1012.01
2023-03-19T08:25:22.532Z,1012.00
2023-03-19T08:26:26.817Z,1011.97
2023-03-19T08:27:31.085Z,1011.99
2023-03-19T08:28:35.353Z,1012.00
2023-03-19T08:29:39.636Z,1012.00
2023-03-19T08:30:43.932Z,1012.01
2023-03-19T08:31:48.135Z,1012.00
2023-03-19T08:32:52.474Z,1011.99
2023-03-19T08:33:56.753Z,1012.02
2023-03-19T08:35:01.032Z,1012.02
2023-03-19T08:36:05.272Z,1012.00
2023-03-19T08:37:09.482Z,1012.01
2023-03-19T08:38:13.754Z,1011.98
2023-03-19T08:39:18.011Z,1011.99
2023-03-19T08:40:22.259Z,1011.97
2023-03-19T08:41:26.568Z,1011.98
2023-03-19T08:42:30.848Z,1011.99
2023-03-19T08:43:35.114Z,1011.99
2023-03-19T08:44:39.349Z,1011.99
2023-03-19T08:45:46.710Z,1011.99
2023-03-19T08:46:50.052Z,1011.99
2023-03-19T08:47:54.296Z,1012.00
2023-03-19T08:48:58.592Z,1012.00
2023-03-19T08:50:02.840Z,1012.01
2023-03-19T08:51:07.063Z,1012.01
2023-03-19T08:52:11.303Z,1012.00
2023-03-19T08:53:15.684Z,1012.01
2023-03-19T08:54:22.571Z,1011.98
2023-03-19T08:55:24.194Z,1011.99
2023-03-19T08:56:28.441Z,1011.98
2023-03-19T08:57:32.704Z,1011.97
2023-03-19T08:58:36.978Z,1011.94
2023-03-19T08:59:41.250Z,1011.92
2023-03-19T09:00:45.501Z,1011.90
2023-03-19T09:01:49.867Z,1011.88
2023-03-19T09:02:54.068Z,1011.88
2023-03-19T09:03:58.403Z,1011.87
2023-03-19T09:05:02.676Z,1011.87
2023-03-19T09:06:06.957Z,1011.87
2023-03-19T09:07:11.228Z,1011.87
2023-03-19T09:08:15.585Z,1011.87
2023-03-19T09:09:19.827Z,1011.87
2023-03-19T09:10:24.117Z,1011.87
2023-03-19T09:11:28.415Z,1011.88
2023-03-19T09:12:32.645Z,1011.88
2023-03-19T09:13:36.945Z,1011.88
2023-03-19T09:14:41.184Z,1011.87
2023-03-19T09:15:45.489Z,1011.84
2023-03-19T09:16:49.828Z,1011.84
2023-03-19T09:17:54.193Z,1011.85
2023-03-19T09:18:59.468Z,1011.85
2023-03-19T09:20:02.695Z,1011.85
2023-03-19T09:21:07.047Z,1011.85
2023-03-19T09:22:11.268Z,1011.87
2023-03-19T09:23:15.561Z,1011.88
2023-03-19T09:24:19.894Z,1011.89
2023-03-19T09:25:24.174Z,1011.88
2023-03-19T09:26:28.535Z,1011.90
2023-03-19T09:27:32.871Z,1011.89
2023-03-19T09:28:37.189Z,1011.93
2023-03-19T09:29:41.458Z,1011.87
2023-03-19T09:30:45.833Z,1011.88
2023-03-19T09:31:50.285Z,1011.88
2023-03-19T09:32:54.519Z,1011.89
2023-03-19T09:33:58.708Z,1011.89
2023-03-19T09:35:03.096Z,1011.88
2023-03-19T09:36:07.361Z,1011.88
2023-03-19T09:37:11.672Z,1011.87
2023-03-19T09:38:15.959Z,1011.86
2023-03-19T09:39:23.295Z,1011.85
2023-03-19T09:40:26.708Z,1011.86
2023-03-19T09:41:30.918Z,1011.87
2023-03-19T09:42:35.316Z,1011.88
2023-03-19T09:43:53.625Z,1011.88
2023-03-19T09:44:56.839Z,1011.87
2023-03-19T09:46:01.216Z,1011.91
2023-03-19T09:47:05.466Z,1011.91
2023-03-19T09:48:09.793Z,1011.88
2023-03-19T09:49:14.052Z,1011.89
2023-03-19T09:50:18.435Z,1011.89
2023-03-19T09:51:22.776Z,1011.86
2023-03-19T09:52:27.173Z,1011.85
2023-03-19T09:53:31.411Z,1011.85
2023-03-19T09:54:36.675Z,1011.86
2023-03-19T09:55:40.596Z,1011.86
2023-03-19T09:56:44.900Z,1011.84
2023-03-19T09:57:49.326Z,1011.84
2023-03-19T09:58:53.590Z,1011.86
2023-03-19T09:59:57.857Z,1011.86
2023-03-19T10:01:02.148Z,1011.85
2023-03-19T10:02:06.657Z,1011.86
2023-03-19T10:03:10.880Z,1011.84
2023-03-19T10:04:15.311Z,1011.83
2023-03-19T10:05:19.454Z,1011.83
2023-03-19T10:06:23.774Z,1011.79
2023-03-19T10:07:28.056Z,1011.79
2023-03-19T10:08:38.495Z,1011.78
2023-03-19T10:09:41.477Z,1011.80
2023-03-19T10:10:45.705Z,1011.77
2023-03-19T10:11:49.955Z,1011.79
2023-03-19T10:12:54.342Z,1011.77
2023-03-19T10:13:58.605Z,1011.81
2023-03-19T10:15:03.016Z,1011.83
2023-03-19T10:16:07.281Z,1011.82
2023-03-19T10:17:11.588Z,1011.84
2023-03-19T10:18:16.022Z,1011.84
2023-03-19T10:19:22.102Z,1011.89
2023-03-19T10:20:24.530Z,1011.85
2023-03-19T10:21:28.864Z,1011.87
2023-03-19T10:22:33.222Z,1011.85
2023-03-19T10:23:37.560Z,1011.85
2023-03-19T10:24:55.889Z,1011.85
2023-03-19T10:25:59.280Z,1011.85
2023-03-19T10:27:17.505Z,1011.88
2023-03-19T10:28:20.834Z,1011.89
2023-03-19T10:29:28.059Z,1011.90
2023-03-19T10:30:31.503Z,1011.89
2023-03-19T10:31:35.824Z,1011.90
2023-03-19T10:32:40.183Z,1011.89
2023-03-19T10:33:44.446Z,1011.84
2023-03-19T10:34:48.813Z,1011.84
2023-03-19T10:35:53.154Z,1011.84
2023-03-19T10:37:00.487Z,1011.83
2023-03-19T10:38:03.923Z,1011.84
2023-03-19T10:39:08.217Z,1011.85
2023-03-19T10:40:12.610Z,1011.81
2023-03-19T10:41:16.994Z,1011.84
2023-03-19T10:42:21.295Z,1011.83
2023-03-19T10:43:25.536Z,1011.84
2023-03-19T10:44:29.847Z,1011.84
2023-03-19T10:45:34.730Z,1011.83
2023-03-19T10:46:38.446Z,1011.84
2023-03-19T10:47:42.839Z,1011.83
2023-03-19T10:48:47.210Z,1011.83
2023-03-19T10:49:51.488Z,1011.85
2023-03-19T10:50:55.877Z,1011.84
2023-03-19T10:52:00.116Z,1011.83
2023-03-19T10:53:04.403Z,1011.84
2023-03-19T10:54:08.701Z,1011.83
2023-03-19T10:55:13.014Z,1011.84
2023-03-19T10:56:17.437Z,1011.84
2023-03-19T10:57:21.629Z,1011.84
2023-03-19T10:58:25.954Z,1011.83
2023-03-19T10:59:30.368Z,1011.82
2023-03-19T11:00:48.850Z,1011.85
2023-03-19T11:01:52.139Z,1011.83
2023-03-19T11:02:56.463Z,1011.82
2023-03-19T11:04:00.863Z,1011.83
2023-03-19T11:05:05.063Z,1011.83
2023-03-19T11:06:09.478Z,1011.84
2023-03-19T11:07:13.728Z,1011.84
2023-03-19T11:08:34.638Z,1011.83
2023-03-19T11:09:22.486Z,1011.85
2023-03-19T11:10:26.751Z,1011.84
2023-03-19T11:11:31.247Z,1011.84
2023-03-19T11:12:35.619Z,1011.87
2023-03-19T11:13:39.882Z,1011.84
2023-03-19T11:14:44.328Z,1011.83
2023-03-19T11:15:48.585Z,1011.85
2023-03-19T11:16:53.057Z,1011.85
2023-03-19T11:17:57.496Z,1011.83
2023-03-19T11:19:01.761Z,1011.81
2023-03-19T11:20:06.159Z,1011.82
2023-03-19T11:21:10.412Z,1011.82
2023-03-19T11:22:14.731Z,1011.82
2023-03-19T11:23:19.153Z,1011.82
2023-03-19T11:24:23.554Z,1011.80
2023-03-19T11:25:27.911Z,1011.84
2023-03-19T11:26:32.189Z,1011.84
2023-03-19T11:27:36.642Z,1011.81
2023-03-19T11:28:40.998Z,1011.83
2023-03-19T11:29:45.283Z,1011.82
2023-03-19T11:30:49.598Z,1011.80
2023-03-19T11:31:54.065Z,1011.79
2023-03-19T11:33:12.545Z,1011.78
2023-03-19T11:34:15.668Z,1011.77
2023-03-19T11:35:19.991Z,1011.76
2023-03-19T11:36:24.249Z,1011.76
2023-03-19T11:37:28.641Z,1011.76
2023-03-19T11:38:32.861Z,1011.76
2023-03-19T11:41:04.261Z,1011.70
2023-03-19T11:42:08.537Z,1011.68
2023-03-19T11:43:12.850Z,1011.69
2023-03-19T11:44:17.233Z,1011.66
2023-03-19T11:45:24.635Z,1011.63
2023-03-19T11:46:28.132Z,1011.63
2023-03-19T11:47:32.453Z,1011.62
2023-03-19T11:48:36.834Z,1011.64
2023-03-19T11:49:41.228Z,1011.63
2023-03-19T11:50:47.140Z,1011.62
2023-03-19T11:51:49.821Z,1011.61
2023-03-19T11:52:54.223Z,1011.59
2023-03-19T11:53:58.609Z,1011.57
2023-03-19T11:55:02.971Z,1011.54
2023-03-19T11:56:07.324Z,1011.52
2023-03-19T11:57:14.643Z,1011.54
2023-03-19T11:58:18.083Z,1011.54
2023-03-19T11:59:22.518Z,1011.50
2023-03-19T12:00:26.887Z,1011.48
2023-03-19T12:01:31.176Z,1011.48
2023-03-19T12:02:35.642Z,1011.47
2023-03-19T12:03:39.912Z,1011.45
2023-03-19T12:04:44.319Z,1011.39
2023-03-19T12:05:48.754Z,1011.40
2023-03-19T12:06:53.035Z,1011.40
2023-03-19T12:07:57.485Z,1011.38
2023-03-19T12:09:01.760Z,1011.38
2023-03-19T12:10:06.090Z,1011.38
2023-03-19T12:11:10.505Z,1011.37
2023-03-19T12:12:14.919Z,1011.38
2023-03-19T12:13:19.359Z,1011.37
2023-03-19T12:14:23.625Z,1011.38
2023-03-19T12:15:27.969Z,1011.36
2023-03-19T12:16:32.317Z,1011.33
2023-03-19T12:17:36.776Z,1011.28
2023-03-19T12:18:41.089Z,1011.26
2023-03-19T12:19:45.490Z,1011.25
2023-03-19T12:20:49.804Z,1011.27
2023-03-19T12:21:54.340Z,1011.27
2023-03-19T12:22:58.490Z,1011.27
2023-03-19T12:24:02.938Z,1011.26
2023-03-19T12:25:07.326Z,1011.26
2023-03-19T12:26:11.774Z,1011.24
2023-03-19T12:27:16.081Z,1011.25
2023-03-19T12:28:20.546Z,1011.22
2023-03-19T12:29:24.899Z,1011.20
2023-03-19T12:30:29.265Z,1011.19
2023-03-19T12:31:33.786Z,1011.17
2023-03-19T12:32:38.177Z,1011.15
2023-03-19T12:33:42.604Z,1011.18
2023-03-19T12:34:47.882Z,1011.17
2023-03-19T12:35:51.975Z,1011.18
2023-03-19T12:36:56.398Z,1011.17
2023-03-19T12:38:00.803Z,1011.16
2023-03-19T12:39:05.114Z,1011.15
2023-03-19T12:40:09.437Z,1011.11
2023-03-19T12:41:19.918Z,1011.14
2023-03-19T12:42:22.890Z,1011.11
2023-03-19T12:43:30.220Z,1011.11
2023-03-19T12:44:33.702Z,1011.12
2023-03-19T12:45:37.989Z,1011.13
2023-03-19T12:46:42.434Z,1011.12
2023-03-19T12:47:46.837Z,1011.12
2023-03-19T12:48:51.258Z,1011.08
2023-03-19T12:49:55.516Z,1011.07
2023-03-19T12:50:59.863Z,1011.10
2023-03-19T12:52:04.252Z,1011.09
2023-03-19T12:53:08.726Z,1011.09
2023-03-19T12:54:19.046Z,1011.06
2023-03-19T12:55:22.041Z,1011.08
2023-03-19T12:56:40.524Z,1011.10
2023-03-19T12:57:44.023Z,1011.08
2023-03-19T12:58:48.372Z,1011.03
2023-03-19T12:59:52.744Z,1011.04
2023-03-19T13:00:57.013Z,1011.03
2023-03-19T13:02:01.595Z,1011.01